Time;durP1;ratioP1;P1;durP2;ratioP2;P2;SDS_P1;SDS_P2;PMS_P1;PMS_P2;Temp;Humidity;BMP_temperature;BMP_pressure;BME280_temperature;BME280_humidity;BME280_pressure;Samples;Min_cycle;Max_cycle;Signal;HPM_P1;HPM_P2
2023/06/27 07:25:00;;;;;;;8.77;7.38;;;;;;;;;;6303695;22;20027;-83
2023/06/27 07:27:26;;;;;;;7.65;6.82;;;;;;;;;;6309141;22;20015;-84
2023/06/27 07:29:51;;;;;;;7.85;7.05;;;;;;;;;;6309656;22;20130;-83
2023/06/27 07:32:17;;;;;;;7.78;7.07;;;;;;;;;;6309046;22;20410;-83
2023/06/27 07:34:42;;;;;;;9.30;7.97;;;;;;;;;;6309619;22;20010;-83
2023/06/27 07:37:08;;;;;;;8.82;7.70;;;;;;;;;;6309219;22;20460;-83
2023/06/27 07:39:33;;;;;;;9.13;8.18;;;;;;;;;;6309067;22;20014;-83
2023/06/27 07:41:59;;;;;;;7.75;7.05;;;;;;;;;;6308965;22;19999;-83
2023/06/27 07:44:25;;;;;;;9.48;7.57;;;;;;;;;;6309599;22;20094;-83
2023/06/27 07:46:51;;;;;;;9.73;7.40;;;;;;;;;;6308945;22;20053;-82
2023/06/27 07:49:17;;;;;;;8.27;7.55;;;;;;;;;;6308980;22;20448;-83
2023/06/27 07:51:43;;;;;;;8.38;7.25;;;;;;;;;;6308967;22;20425;-83
2023/06/27 07:54:09;;;;;;;9.30;7.18;;;;;;;;;;6309124;22;20006;-83
2023/06/27 07:56:35;;;;;;;11.23;7.53;;;;;;;;;;6281689;22;20007;-83
2023/06/27 07:59:02;;;;;;;8.30;7.35;;;;;;;;;;6309402;22;20009;-83
2023/06/27 08:01:27;;;;;;;8.40;7.63;;;;;;;;;;6308777;22;20003;-83
2023/06/27 08:03:53;;;;;;;9.13;7.68;;;;;;;;;;6309240;22;20065;-83
2023/06/27 08:06:18;;;;;;;8.35;7.38;;;;;;;;;;6309305;22;20307;-84
2023/06/27 08:08:43;;;;;;;8.18;7.47;;;;;;;;;;6281373;22;20429;-83
2023/06/27 08:11:09;;;;;;;7.88;7.07;;;;;;;;;;6308968;22;20004;-83
2023/06/27 08:13:38;;;;;;;8.73;7.82;;;;;;;;;;6308691;22;20318;-83
2023/06/27 08:16:04;;;;;;;8.15;7.30;;;;;;;;;;6308676;22;20429;-83
2023/06/27 08:18:29;;;;;;;9.75;8.65;;;;;;;;;;6309001;22;20003;-83
2023/06/27 08:20:55;;;;;;;8.35;7.55;;;;;;;;;;6308739;22;20003;-83
2023/06/27 08:23:20;;;;;;;8.90;7.97;;;;;;;;;;6308388;22;20308;-83
2023/06/27 08:25:46;;;;;;;8.82;7.32;;;;;;;;;;6308340;22;20008;-83
2023/06/27 08:28:11;;;;;;;9.95;7.88;;;;;;;;;;6309445;22;20003;-84
2023/06/27 08:30:38;;;;;;;9.88;8.05;;;;;;;;;;6308744;22;20062;-84
2023/06/27 08:33:04;;;;;;;8.88;7.97;;;;;;;;;;6308773;22;20053;-83
2023/06/27 08:35:29;;;;;;;8.38;7.57;;;;;;;;;;6308468;22;20003;-84
2023/06/27 08:37:55;;;;;;;9.45;7.95;;;;;;;;;;6308681;22;20403;-83
2023/06/27 08:40:25;;;;;;;8.52;7.70;;;;;;;;;;6308582;22;20429;-82
2023/06/27 08:42:50;;;;;;;9.68;7.68;;;;;;;;;;6308669;22;19999;-83
2023/06/27 08:45:16;;;;;;;8.45;7.65;;;;;;;;;;6308785;22;20462;-82
2023/06/27 08:47:46;;;;;;;9.15;8.23;;;;;;;;;;6308301;22;20014;-84
2023/06/27 08:50:15;;;;;;;8.43;7.57;;;;;;;;;;6308800;22;20022;-82
2023/06/27 08:52:44;;;;;;;8.38;7.25;;;;;;;;;;6308630;22;20074;-83
2023/06/27 08:55:34;;;;;;;10.48;7.53;;;;;;;;;;6308681;22;20037;-85
2023/06/27 08:58:07;;;;;;;8.43;7.50;;;;;;;;;;6308308;22;20038;-82
2023/06/27 09:00:33;;;;;;;8.07;7.28;;;;;;;;;;6308051;22;20009;-82
2023/06/27 09:02:58;;;;;;;9.27;8.35;;;;;;;;;;6308386;22;20445;-81
2023/06/27 09:05:24;;;;;;;8.13;7.22;;;;;;;;;;6308221;22;19999;-81
2023/06/27 09:07:50;;;;;;;9.20;7.90;;;;;;;;;;6308688;22;20009;-82
2023/06/27 09:10:15;;;;;;;10.57;7.88;;;;;;;;;;6308217;22;20004;-82
2023/06/27 09:12:43;;;;;;;9.52;8.07;;;;;;;;;;6308077;22;20313;-82
2023/06/27 09:15:10;;;;;;;9.77;7.43;;;;;;;;;;6308544;22;20074;-82
2023/06/27 09:17:36;;;;;;;9.98;7.47;;;;;;;;;;6308003;22;20003;-81
2023/06/27 09:20:02;;;;;;;8.70;7.05;;;;;;;;;;6308253;22;19999;-85
2023/06/27 09:22:28;;;;;;;8.85;7.50;;;;;;;;;;6308659;22;20007;-81
2023/06/27 09:25:19;;;;;;;7.82;7.13;;;;;;;;;;6308522;22;20078;-81
2023/06/27 09:27:45;;;;;;;11.55;9.00;;;;;;;;;;6308469;22;20010;-82
2023/06/27 09:30:11;;;;;;;9.00;8.15;;;;;;;;;;6308360;22;20070;-81
2023/06/27 09:32:59;;;;;;;8.88;7.97;;;;;;;;;;6307997;22;20006;-80
2023/06/27 09:35:27;;;;;;;8.13;7.43;;;;;;;;;;6308858;22;20003;-80
2023/06/27 09:38:02;;;;;;;9.85;8.50;;;;;;;;;;6308151;22;20445;-80
2023/06/27 09:40:28;;;;;;;13.05;7.97;;;;;;;;;;6308049;22;20070;-81
2023/06/27 09:42:58;;;;;;;9.32;8.27;;;;;;;;;;6308360;22;20057;-82
2023/06/27 09:45:27;;;;;;;9.95;8.48;;;;;;;;;;6307896;22;19995;-82
2023/06/27 09:47:52;;;;;;;8.88;7.57;;;;;;;;;;6308409;22;20010;-81
2023/06/27 09:50:27;;;;;;;9.23;7.85;;;;;;;;;;6308426;22;20003;-82
2023/06/27 09:52:55;;;;;;;16.15;9.18;;;;;;;;;;6308577;22;20351;-82
2023/06/27 09:55:21;;;;;;;10.18;8.27;;;;;;;;;;6307989;22;20003;-83
2023/06/27 09:57:47;;;;;;;13.60;8.70;;;;;;;;;;6308918;22;19999;-83
2023/06/27 10:00:14;;;;;;;10.77;8.30;;;;;;;;;;6281770;22;20008;-86
2023/06/27 10:02:41;;;;;;;9.55;8.32;;;;;;;;;;6308918;22;20006;-82
2023/06/27 10:05:08;;;;;;;10.88;8.35;;;;;;;;;;6308747;22;20003;-82
2023/06/27 10:07:34;;;;;;;12.32;8.50;;;;;;;;;;6308487;22;20008;-81
2023/06/27 10:10:00;;;;;;;9.73;8.73;;;;;;;;;;6280912;22;20025;-85
2023/06/27 10:12:26;;;;;;;10.95;9.07;;;;;;;;;;6307948;22;20011;-78
2023/06/27 10:14:53;;;;;;;11.23;8.95;;;;;;;;;;6308261;22;19999;-81
2023/06/27 10:17:19;;;;;;;9.57;8.38;;;;;;;;;;6308303;22;20033;-81
2023/06/27 10:19:45;;;;;;;9.68;8.68;;;;;;;;;;6308008;22;20003;-82
2023/06/27 10:22:15;;;;;;;9.85;7.93;;;;;;;;;;6280550;22;20010;-78
2023/06/27 10:24:43;;;;;;;9.45;7.65;;;;;;;;;;6307661;22;20076;-77
2023/06/27 10:27:12;;;;;;;10.25;8.20;;;;;;;;;;6307893;22;20011;-78
2023/06/27 10:29:41;;;;;;;;;;;;;;;;;;6309614;22;20303;-78
2023/06/27 10:32:10;;;;;;;;;;;;;;;;;;6310100;22;19985;-77
2023/06/27 10:34:40;;;;;;;13.15;7.95;;;;;;;;;;6309925;22;19906;-78
2023/06/27 10:37:19;;;;;;;10.27;9.23;;;;;;;;;;6309353;22;20003;-77
2023/06/27 10:39:58;;;;;;;10.00;8.98;;;;;;;;;;6309955;22;20003;-77
2023/06/27 10:42:23;;;;;;;;;;;;;;;;;;6310530;22;20003;-79
2023/06/27 10:45:01;;;;;;;12.73;9.27;;;;;;;;;;6309735;22;19907;-81
2023/06/27 10:47:29;;;;;;;9.90;8.90;;;;;;;;;;6309416;22;20244;-81
2023/06/27 10:50:02;;;;;;;8.93;7.72;;;;;;;;;;6309599;22;20228;-80
2023/06/27 10:52:28;;;;;;;10.38;8.60;;;;;;;;;;6309712;22;20434;-80
2023/06/27 10:55:15;;;;;;;10.23;8.60;;;;;;;;;;6309655;22;20003;-81
2023/06/27 10:58:02;;;;;;;9.88;8.40;;;;;;;;;;6309361;22;20002;-81
2023/06/27 11:00:30;;;;;;;8.77;7.88;;;;;;;;;;6309880;22;20011;-81
2023/06/27 11:02:56;;;;;;;9.38;7.38;;;;;;;;;;6309795;22;20828;-82
2023/06/27 11:05:44;;;;;;;10.15;7.63;;;;;;;;;;6311401;22;20406;-81
2023/06/27 11:08:15;;;;;;;11.32;7.63;;;;;;;;;;6309422;22;20003;-83
2023/06/27 11:10:59;;;;;;;9.82;7.13;;;;;;;;;;6309628;22;19995;-83
2023/06/27 11:13:27;;;;;;;8.00;6.25;;;;;;;;;;6309348;22;20078;-84
2023/06/27 11:15:53;;;;;;;7.97;7.00;;;;;;;;;;6309175;22;20003;-84
2023/06/27 11:18:21;;;;;;;9.52;7.25;;;;;;;;;;6309282;22;20003;-85
2023/06/27 11:20:48;;;;;;;19.17;8.18;;;;;;;;;;6310494;22;20002;-83
2023/06/27 11:23:15;;;;;;;15.45;8.55;;;;;;;;;;6308781;22;20095;-85
2023/06/27 11:25:42;;;;;;;13.40;8.48;;;;;;;;;;6309001;22;20030;-85
2023/06/27 11:28:09;;;;;;;9.60;8.13;;;;;;;;;;6309492;22;20021;-85
2023/06/27 11:30:35;;;;;;;15.02;8.25;;;;;;;;;;6309677;22;20003;-83
2023/06/27 11:33:01;;;;;;;11.15;7.50;;;;;;;;;;6281576;22;20414;-81
2023/06/27 11:35:28;;;;;;;13.65;8.63;;;;;;;;;;6308980;22;20006;-81
2023/06/27 11:37:54;;;;;;;10.13;8.15;;;;;;;;;;6309034;22;20003;-80
2023/06/27 11:40:21;;;;;;;9.52;7.47;;;;;;;;;;6309063;22;20365;-81
2023/06/27 16:55:40;;;;;;;20.08;15.70;;;;;;;;;;6154432;22;1406224;-85
2023/06/27 16:58:05;;;;;;;22.30;15.60;;;;;;;;;;6191894;23;20021;-88
2023/06/27 17:00:31;;;;;;;21.08;16.35;;;;;;;;;;6188552;23;20001;-89
2023/06/27 17:02:56;;;;;;;19.88;15.02;;;;;;;;;;6169278;23;20002;-90
2023/06/27 17:05:22;;;;;;;20.27;14.45;;;;;;;;;;6157273;23;20013;-92
2023/06/27 17:07:48;;;;;;;18.95;14.68;;;;;;;;;;6157572;23;20068;-87
2023/06/27 17:10:14;;;;;;;19.17;14.77;;;;;;;;;;6159074;23;20002;-91
2023/06/27 17:12:39;;;;;;;23.98;16.08;;;;;;;;;;6158124;23;20021;-91
2023/06/27 17:15:06;;;;;;;18.33;14.27;;;;;;;;;;6132021;23;20013;-90
2023/06/27 17:17:32;;;;;;;18.10;15.63;;;;;;;;;;6160454;23;20344;-89
2023/06/27 17:19:57;;;;;;;18.15;14.73;;;;;;;;;;6160326;23;20033;-92
2023/06/27 17:22:23;;;;;;;17.67;14.57;;;;;;;;;;6163812;23;20093;-92
2023/06/27 17:24:48;;;;;;;21.73;15.32;;;;;;;;;;6161089;23;20413;-92
2023/06/27 17:27:14;;;;;;;19.88;15.27;;;;;;;;;;6159593;23;20006;-90
2023/06/27 17:29:39;;;;;;;19.23;15.25;;;;;;;;;;6158956;23;20036;-88
2023/06/27 17:32:05;;;;;;;16.90;14.55;;;;;;;;;;6158061;23;20010;-93
2023/06/27 17:34:30;;;;;;;19.98;14.65;;;;;;;;;;6160322;23;20016;-87
2023/06/27 17:36:56;;;;;;;20.25;14.55;;;;;;;;;;6162301;23;20005;-95
2023/06/27 17:39:22;;;;;;;19.10;15.20;;;;;;;;;;6135626;23;20033;-87
2023/06/27 17:41:49;;;;;;;18.42;15.27;;;;;;;;;;6160773;23;20002;-94
2023/06/27 17:44:17;;;;;;;20.63;15.63;;;;;;;;;;6142468;23;20010;-94
2023/06/27 17:46:43;;;;;;;20.25;15.35;;;;;;;;;;6162916;23;20093;-87
2023/06/27 17:49:08;;;;;;;21.15;16.02;;;;;;;;;;6136202;23;20009;-88
2023/06/27 17:51:34;;;;;;;19.95;15.85;;;;;;;;;;6165057;23;20008;-95
2023/06/27 17:54:01;;;;;;;18.58;15.18;;;;;;;;;;6161775;23;20002;-88
2023/06/27 17:56:26;;;;;;;21.85;17.95;;;;;;;;;;6157099;23;20023;-88
2023/06/27 17:58:52;;;;;;;23.42;17.15;;;;;;;;;;6157247;23;20035;-87
2023/06/27 18:01:18;;;;;;;26.58;16.60;;;;;;;;;;6157089;23;19998;-84
2023/06/27 18:03:58;;;;;;;;;;;;;;;;;;;;;
2023/06/27 18:06:24;;;;;;;21.77;16.25;;;;;;;;;;6157253;23;20084;-88
2023/06/27 18:08:49;;;;;;;21.33;16.83;;;;;;;;;;6156996;23;20017;-89
2023/06/27 18:11:15;;;;;;;18.95;15.93;;;;;;;;;;6156928;23;20040;-90
2023/06/27 18:13:40;;;;;;;19.92;15.38;;;;;;;;;;6157255;23;20115;-90
2023/06/27 18:16:06;;;;;;;20.63;15.27;;;;;;;;;;6156867;23;20033;-83
2023/06/27 18:18:31;;;;;;;18.05;13.95;;;;;;;;;;6156832;23;20009;-82
2023/06/27 18:20:57;;;;;;;15.43;11.27;;;;;;;;;;6157737;23;20001;-89
2023/06/27 18:23:22;;;;;;;13.05;10.40;;;;;;;;;;6157168;23;20048;-86
2023/06/27 18:25:48;;;;;;;13.55;11.00;;;;;;;;;;6157876;23;20002;-89
2023/06/27 18:28:13;;;;;;;18.95;12.73;;;;;;;;;;6157286;23;20005;-88
2023/06/27 18:30:39;;;;;;;17.23;12.82;;;;;;;;;;6130512;23;20279;-89
2023/06/27 18:33:07;;;;;;;14.93;11.95;;;;;;;;;;6157066;23;20001;-87
2023/06/27 18:35:35;;;;;;;15.20;12.35;;;;;;;;;;6156868;23;20009;-88
2023/06/27 18:38:01;;;;;;;18.25;13.02;;;;;;;;;;6156702;23;20014;-88
2023/06/27 18:40:27;;;;;;;18.48;13.88;;;;;;;;;;6156836;23;20013;-87
2023/06/27 18:42:53;;;;;;;16.70;13.15;;;;;;;;;;6156835;23;20414;-88
2023/06/27 18:45:23;;;;;;;18.40;13.10;;;;;;;;;;6156728;23;20052;-87
2023/06/27 18:47:49;;;;;;;17.48;12.65;;;;;;;;;;6156655;23;20451;-87
2023/06/27 18:50:19;;;;;;;17.50;13.57;;;;;;;;;;6156919;23;20005;-86
2023/06/27 18:52:45;;;;;;;15.85;12.88;;;;;;;;;;6156278;23;20001;-88
2023/06/27 18:55:10;;;;;;;13.85;11.45;;;;;;;;;;6156694;23;20006;-87
2023/06/27 18:57:35;;;;;;;16.60;12.18;;;;;;;;;;6156816;23;20029;-88
2023/06/27 19:00:01;;;;;;;18.88;12.05;;;;;;;;;;6157355;23;20009;-87
2023/06/27 19:02:26;;;;;;;19.33;12.10;;;;;;;;;;6156899;23;20013;-87
2023/06/27 19:04:52;;;;;;;15.93;12.50;;;;;;;;;;6156636;23;20005;-86
2023/06/27 19:07:17;;;;;;;17.35;12.20;;;;;;;;;;6156635;23;20136;-86
2023/06/27 19:09:42;;;;;;;17.38;12.48;;;;;;;;;;6156402;23;20060;-86
2023/06/27 19:12:08;;;;;;;17.55;12.32;;;;;;;;;;6156378;23;20464;-86
2023/06/27 19:14:34;;;;;;;15.88;13.07;;;;;;;;;;6156638;23;20455;-88
2023/06/27 19:16:59;;;;;;;17.17;13.10;;;;;;;;;;6130230;23;20500;-87
2023/06/27 19:19:25;;;;;;;16.27;12.60;;;;;;;;;;6156480;23;20009;-88
2023/06/27 19:21:52;;;;;;;16.65;12.98;;;;;;;;;;6129387;23;20005;-86
2023/06/27 19:24:17;;;;;;;14.98;12.50;;;;;;;;;;6130227;23;20064;-88
2023/06/27 19:26:43;;;;;;;15.13;11.88;;;;;;;;;;6129918;23;20400;-87
2023/06/27 19:29:08;;;;;;;17.90;12.55;;;;;;;;;;6156832;23;20009;-86
2023/06/27 19:31:34;;;;;;;17.73;12.13;;;;;;;;;;6132499;23;20033;-87
2023/06/27 19:33:59;;;;;;;15.88;12.32;;;;;;;;;;6130326;23;20005;-90
2023/06/27 19:36:25;;;;;;;17.40;12.60;;;;;;;;;;6156690;23;20009;-88
2023/06/27 19:38:53;;;;;;;16.45;12.30;;;;;;;;;;6156884;23;20005;-88
2023/06/27 19:41:21;;;;;;;17.50;13.00;;;;;;;;;;6155502;23;20076;-88
2023/06/27 19:43:46;;;;;;;16.10;12.82;;;;;;;;;;6156050;23;20006;-87
2023/06/27 19:46:12;;;;;;;16.45;12.75;;;;;;;;;;6156411;23;20012;-91
2023/06/27 19:48:37;;;;;;;19.95;12.48;;;;;;;;;;6156745;23;20002;-91
2023/06/27 19:51:04;;;;;;;16.55;12.20;;;;;;;;;;6156428;23;20071;-92
2023/06/27 19:53:30;;;;;;;15.57;12.27;;;;;;;;;;6156649;23;20009;-91
2023/06/27 19:55:55;;;;;;;13.68;11.48;;;;;;;;;;6155945;23;20080;-89
2023/06/27 19:58:20;;;;;;;17.08;12.80;;;;;;;;;;6156528;23;20418;-92
2023/06/27 20:00:46;;;;;;;15.63;12.57;;;;;;;;;;6156707;23;20417;-88
2023/06/27 20:03:11;;;;;;;18.75;12.20;;;;;;;;;;6156276;23;20072;-89
2023/06/27 20:05:39;;;;;;;16.33;13.13;;;;;;;;;;6156381;23;20073;-91
2023/06/27 20:08:13;;;;;;;18.52;12.70;;;;;;;;;;6156371;23;20457;-91
2023/06/27 20:10:39;;;;;;;16.27;12.30;;;;;;;;;;6156518;23;20125;-91
2023/06/27 20:13:05;;;;;;;14.55;12.80;;;;;;;;;;6156447;23;20001;-93
2023/06/27 20:15:30;;;;;;;14.48;12.55;;;;;;;;;;6156879;23;20020;-87
2023/06/27 20:17:56;;;;;;;16.83;12.60;;;;;;;;;;6156819;23;20085;-92
2023/06/27 20:20:22;;;;;;;15.15;12.45;;;;;;;;;;6156603;23;20006;-90
2023/06/27 20:22:49;;;;;;;14.77;12.50;;;;;;;;;;6156559;23;20393;-89
2023/06/27 20:25:14;;;;;;;15.50;12.18;;;;;;;;;;6156680;23;20009;-91
2023/06/27 20:27:39;;;;;;;17.88;13.38;;;;;;;;;;6156430;23;20009;-93
2023/06/27 20:30:05;;;;;;;17.35;12.40;;;;;;;;;;6156839;23;20534;-86
2023/06/27 20:32:31;;;;;;;15.40;12.85;;;;;;;;;;6156609;23;20006;-90
2023/06/27 20:34:56;;;;;;;18.77;12.63;;;;;;;;;;6160128;23;20011;-85
2023/06/27 20:37:22;;;;;;;15.15;10.80;;;;;;;;;;6158949;23;20056;-85
2023/06/27 20:39:47;;;;;;;14.95;12.23;;;;;;;;;;6158286;23;20059;-85
2023/06/27 20:42:13;;;;;;;14.60;11.80;;;;;;;;;;6158296;23;20336;-84
2023/06/27 20:44:38;;;;;;;15.02;11.48;;;;;;;;;;6158576;23;20325;-84
2023/06/27 20:47:04;;;;;;;16.95;12.25;;;;;;;;;;6157974;23;20005;-85
2023/06/27 20:49:30;;;;;;;19.15;12.80;;;;;;;;;;6157651;23;20409;-87
2023/06/27 20:51:55;;;;;;;14.70;11.93;;;;;;;;;;6157776;23;20013;-88
2023/06/27 20:54:21;;;;;;;17.80;13.15;;;;;;;;;;6132290;23;20036;-91
2023/06/27 20:56:46;;;;;;;15.07;12.02;;;;;;;;;;6131984;23;20018;-91
2023/06/27 20:59:12;;;;;;;17.17;12.82;;;;;;;;;;6158068;23;20009;-91
2023/06/27 21:01:37;;;;;;;15.48;12.52;;;;;;;;;;6158059;23;20006;-86
2023/06/27 21:04:03;;;;;;;15.95;12.82;;;;;;;;;;6157949;23;20389;-89
2023/06/27 21:06:29;;;;;;;13.90;11.73;;;;;;;;;;6157928;23;20088;-90
2023/06/27 21:08:56;;;;;;;15.65;11.85;;;;;;;;;;6158143;23;20029;-89
2023/06/27 21:11:21;;;;;;;15.63;12.20;;;;;;;;;;6158089;23;20004;-92
2023/06/27 21:13:49;;;;;;;16.70;12.55;;;;;;;;;;6157913;23;20005;-86
2023/06/27 21:16:14;;;;;;;16.38;12.52;;;;;;;;;;6158120;23;20001;-89
2023/06/27 21:18:40;;;;;;;16.17;12.13;;;;;;;;;;6157727;23;20076;-90
2023/06/27 21:21:06;;;;;;;15.48;12.93;;;;;;;;;;6157748;23;20033;-89
2023/06/27 21:23:32;;;;;;;13.43;12.00;;;;;;;;;;6157392;23;20024;-90
2023/06/27 21:25:59;;;;;;;19.40;12.77;;;;;;;;;;6157386;23;20012;-89
